Observation data for Plains on 12/09/2018      Previous  Date  Next       Current Mesonet Observations  Soil Data  Daily Summary Page  Observations in Plain Language
KPPS 090600Z 08000KT M05/M05 A3029 RMK A01 T10511051  RH  100%=      5-min Rain = 0
KPPS 090605Z 08001KT M05/M05 A3029 RMK A01 T10511051  RH  100%=      5-min Rain = 0
KPPS 090610Z 08000KT M05/M05 A3029 RMK A01 T10471047  RH  100%=      5-min Rain = 0
KPPS 090615Z 08000KT M05/M05 A3028 RMK A01 T10511052  RH  100%=      5-min Rain = 0
KPPS 090620Z 08000KT M06/M06 A3028 RMK A01 T10561057  RH  100%=      5-min Rain = 0
KPPS 090625Z 00000KT M06/M06 A3028 RMK A01 T10601061  RH  100%=      5-min Rain = 0
KPPS 090630Z 08000KT M06/M06 A3028 RMK A01 T10631063  RH  100%=      5-min Rain = 0
KPPS 090635Z 03000KT M06/M06 A3028 RMK A01 T10631063  RH  100%=      5-min Rain = 0
KPPS 090640Z 02003KT M06/M06 A3028 RMK A01 T10621062  RH  100%=      5-min Rain = 0
KPPS 090645Z 01003KT M06/M06 A3028 RMK A01 T10611061  RH  100%=      5-min Rain = 0
KPPS 090650Z 01003KT M07/M07 A3028 RMK A01 T10651065  RH  100%=      5-min Rain = 0
KPPS 090655Z 01002KT M07/M07 A3027 RMK A01 T10661066  RH  100%=      5-min Rain = 0
KPPS 090700Z 01002KT M07/M07 A3027 RMK A01 T10661066  RH  100%=      5-min Rain = 0
KPPS 090705Z 02003KT M07/M07 A3027 RMK A01 T10661066  RH  100%=      5-min Rain = 0
KPPS 090710Z 02002KT M07/M07 A3027 RMK A01 T10661066  RH  100%=      5-min Rain = 0
KPPS 090715Z 01003KT M07/M07 A3027 RMK A01 T10681068  RH  100%=      5-min Rain = 0
KPPS 090720Z 01003KT M07/M07 A3027 RMK A01 T10711071  RH  100%=      5-min Rain = 0
KPPS 090725Z 35003KT M07/M07 A3027 RMK A01 T10711071  RH  100%=      5-min Rain = 0
KPPS 090730Z 34004KT M07/M07 A3027 RMK A01 T10721072  RH  100%=      5-min Rain = 0
KPPS 090735Z 33005KT M07/M07 A3027 RMK A01 T10721072  RH  100%=      5-min Rain = 0
KPPS 090740Z 32005KT M07/M07 A3027 RMK A01 T10711071  RH  100%=      5-min Rain = 0
KPPS 090745Z 31004KT M07/M07 A3027 RMK A01 T10691069  RH  100%=      5-min Rain = 0
KPPS 090750Z 30004KT M07/M07 A3027 RMK A01 T10681068  RH  100%=      5-min Rain = 0
KPPS 090755Z 31004KT M07/M07 A3027 RMK A01 T10681068  RH  100%=      5-min Rain = 0
KPPS 090800Z 31004KT M07/M07 A3027 RMK A01 T10681068  RH  100%=      5-min Rain = 0
KPPS 090805Z 32005KT M07/M07 A3027 RMK A01 T10691069  RH  100%=      5-min Rain = 0
KPPS 090810Z 32005KT M07/M07 A3027 RMK A01 T10691070  RH  100%=      5-min Rain = 0
KPPS 090815Z 31004KT M07/M07 A3027 RMK A01 T10701070  RH  100%=      5-min Rain = 0
KPPS 090820Z 31004KT M07/M07 A3027 RMK A01 T10711071  RH  100%=      5-min Rain = 0
KPPS 090825Z 32004KT M07/M07 A3027 RMK A01 T10731073  RH  100%=      5-min Rain = 0
KPPS 090830Z 33005KT M07/M07 A3027 RMK A01 T10741074  RH  100%=      5-min Rain = 0
KPPS 090835Z 33005KT M07/M07 A3027 RMK A01 T10731073  RH  100%=      5-min Rain = 0
KPPS 090840Z 33006KT M07/M07 A3027 RMK A01 T10721072  RH  100%=      5-min Rain = 0
KPPS 090845Z 32005KT M07/M07 A3027 RMK A01 T10711071  RH  100%=      5-min Rain = 0
KPPS 090850Z 33006KT M07/M07 A3027 RMK A01 T10711071  RH  100%=      5-min Rain = 0
KPPS 090855Z 34006KT M07/M07 A3027 RMK A01 T10701070  RH  100%=      5-min Rain = 0
KPPS 090900Z 34005KT M07/M07 A3027 RMK A01 T10681068  RH  100%=      5-min Rain = 0
KPPS 090905Z 33005KT M07/M07 A3027 RMK A01 T10671067  RH  100%=      5-min Rain = 0
KPPS 090910Z 33005KT M07/M07 A3027 RMK A01 T10661066  RH  100%=      5-min Rain = 0
KPPS 090915Z 33004KT M07/M07 A3027 RMK A01 T10681068  RH  100%=      5-min Rain = 0
KPPS 090920Z 34004KT M07/M07 A3027 RMK A01 T10691069  RH  100%=      5-min Rain = 0
KPPS 090925Z 34004KT M07/M07 A3027 RMK A01 T10691069  RH  100%=      5-min Rain = 0
KPPS 090930Z 34005KT M07/M07 A3027 RMK A01 T10701070  RH  100%=      5-min Rain = 0
KPPS 090935Z 33004KT M07/M07 A3027 RMK A01 T10681068  RH  100%=      5-min Rain = 0
KPPS 090940Z 33005KT M07/M07 A3027 RMK A01 T10681068  RH  100%=      5-min Rain = 0
KPPS 090945Z 34005KT M07/M07 A3027 RMK A01 T10691069  RH  100%=      5-min Rain = 0
KPPS 090950Z 35005KT M07/M07 A3027 RMK A01 T10671067  RH  100%=      5-min Rain = 0
KPPS 090955Z 34005KT M07/M07 A3027 RMK A01 T10671067  RH  100%=      5-min Rain = 0
KPPS 091000Z 33005KT M07/M07 A3027 RMK A01 T10661066  RH  100%=      5-min Rain = 0
KPPS 091005Z 33005KT M07/M07 A3027 RMK A01 T10671067  RH  100%=      5-min Rain = 0
KPPS 091010Z 33005KT M07/M07 A3027 RMK A01 T10671067  RH  100%=      5-min Rain = 0
KPPS 091015Z 33005KT M07/M07 A3027 RMK A01 T10671067  RH  100%=      5-min Rain = 0
KPPS 091020Z 33005KT M07/M07 A3027 RMK A01 T10681068  RH  100%=      5-min Rain = 0
KPPS 091025Z 32006KT M07/M07 A3027 RMK A01 T10681068  RH  100%=      5-min Rain = 0
KPPS 091030Z 31005KT M07/M07 A3027 RMK A01 T10681068  RH  100%=      5-min Rain = 0
KPPS 091035Z 32005KT M07/M07 A3027 RMK A01 T10691069  RH  100%=      5-min Rain = 0
KPPS 091040Z 31005KT M07/M07 A3027 RMK A01 T10681068  RH  100%=      5-min Rain = 0
KPPS 091045Z 31005KT M07/M07 A3027 RMK A01 T10671067  RH  100%=      5-min Rain = 0
KPPS 091050Z 32005KT M07/M07 A3027 RMK A01 T10671067  RH  100%=      5-min Rain = 0
KPPS 091055Z 32005KT M07/M07 A3027 RMK A01 T10671067  RH  100%=      5-min Rain = 0
KPPS 091100Z 33006KT M07/M07 A3027 RMK A01 T10681068  RH  100%=      5-min Rain = 0
KPPS 091105Z 33006KT M07/M07 A3027 RMK A01 T10701070  RH  100%=      5-min Rain = 0
KPPS 091110Z 34006KT M07/M07 A3028 RMK A01 T10711071  RH  100%=      5-min Rain = 0
KPPS 091115Z 34006KT M07/M07 A3028 RMK A01 T10711071  RH  100%=      5-min Rain = 0
KPPS 091120Z 33006KT M07/M07 A3028 RMK A01 T10691069  RH  100%=      5-min Rain = 0
KPPS 091125Z 33006KT M07/M07 A3028 RMK A01 T10691069  RH  100%=      5-min Rain = 0
KPPS 091130Z 33006KT M07/M07 A3028 RMK A01 T10671067  RH  100%=      5-min Rain = 0
KPPS 091135Z 33006KT M07/M07 A3028 RMK A01 T10651065  RH  100%=      5-min Rain = 0
KPPS 091140Z 33006KT M07/M07 A3028 RMK A01 T10651065  RH  100%=      5-min Rain = 0
KPPS 091145Z 34005KT M07/M07 A3028 RMK A01 T10651065  RH  100%=      5-min Rain = 0
KPPS 091150Z 33005KT M06/M06 A3029 RMK A01 T10631063  RH  100%=      5-min Rain = 0
KPPS 091155Z 34005KT M06/M06 A3029 RMK A01 T10611061  RH  100%=      5-min Rain = 0
KPPS 091200Z 33005KT M06/M06 A3029 RMK A01 T10581058  RH  100%=      5-min Rain = 0
KPPS 091205Z 33005KT M05/M05 A3029 RMK A01 T10531054  RH  100%=      5-min Rain = 0
KPPS 091210Z 34005KT M05/M05 A3029 RMK A01 T10501050  RH  100%=      5-min Rain = 0
KPPS 091215Z 35004KT M05/M05 A3029 RMK A01 T10471047  RH  100%=      5-min Rain = 0
KPPS 091220Z 35003KT M04/M04 A303 RMK A01 T10421043  RH  100%=      5-min Rain = 0
KPPS 091225Z 35003KT M04/M04 A303 RMK A01 T10391040  RH  100%=      5-min Rain = 0
KPPS 091230Z 35003KT M04/M04 A303 RMK A01 T10381039  RH  100%=      5-min Rain = 0
KPPS 091235Z 35002KT M04/M04 A303 RMK A01 T10371037  RH  100%=      5-min Rain = 0
KPPS 091240Z 34002KT M04/M04 A303 RMK A01 T10361037  RH  100%=      5-min Rain = 0
KPPS 091245Z 33002KT M04/M04 A303 RMK A01 T10351036  RH  100%=      5-min Rain = 0
KPPS 091250Z 33002KT M03/M04 A3031 RMK A01 T10341035  RH  100%=      5-min Rain = 0
KPPS 091255Z 33002KT M03/M03 A3031 RMK A01 T10341034  RH  100%=      5-min Rain = 0
KPPS 091300Z 33002KT M03/M03 A3031 RMK A01 T10331034  RH  100%=      5-min Rain = 0
KPPS 091305Z 32002KT M03/M03 A3031 RMK A01 T10321033  RH  100%=      5-min Rain = 0
KPPS 091310Z 31002KT M03/M03 A3031 RMK A01 T10301031  RH  100%=      5-min Rain = 0
KPPS 091315Z 30002KT M03/M03 A3032 RMK A01 T10301031  RH  100%=      5-min Rain = 0
KPPS 091320Z 30002KT M03/M03 A3032 RMK A01 T10291030  RH  100%=      5-min Rain = 0
KPPS 091325Z 29002KT M03/M03 A3032 RMK A01 T10281028  RH  100%=      5-min Rain = 0
KPPS 091330Z 28002KT M03/M03 A3032 RMK A01 T10271027  RH  100%=      5-min Rain = 0
KPPS 091335Z 28001KT M03/M03 A3032 RMK A01 T10261027  RH  100%=      5-min Rain = 0
KPPS 091340Z 29001KT M03/M03 A3032 RMK A01 T10271028  RH  100%=      5-min Rain = 0
KPPS 091345Z 29001KT M03/M03 A3033 RMK A01 T10271028  RH  100%=      5-min Rain = 0
KPPS 091350Z 29001KT M03/M03 A3033 RMK A01 T10271028  RH  100%=      5-min Rain = 0
KPPS 091355Z 29001KT M03/M03 A3033 RMK A01 T10271028  RH  100%=      5-min Rain = 0
KPPS 091400Z 32002KT M03/M03 A3033 RMK A01 T10251026  RH  100%=      5-min Rain = 0
KPPS 091405Z 33003KT M02/M02 A3034 RMK A01 T10221023  RH  100%=      5-min Rain = 0
KPPS 091410Z 33003KT M02/M02 A3034 RMK A01 T10221023  RH  100%=      5-min Rain = 0
KPPS 091415Z 33003KT M02/M02 A3034 RMK A01 T10211022  RH  100%=      5-min Rain = 0
KPPS 091420Z 33003KT M02/M02 A3034 RMK A01 T10211022  RH  100%=      5-min Rain = 0
KPPS 091425Z 32002KT M02/M02 A3035 RMK A01 T10211022  RH  100%=      5-min Rain = 0
KPPS 091430Z 32002KT M02/M02 A3035 RMK A01 T10221023  RH  100%=      5-min Rain = 0
KPPS 091435Z 31002KT M02/M02 A3035 RMK A01 T10221023  RH  100%=      5-min Rain = 0
KPPS 091440Z 33002KT M02/M02 A3035 RMK A01 T10231024  RH  100%=      5-min Rain = 0
KPPS 091445Z 31002KT M02/M03 A3035 RMK A01 T10241025  RH  100%=      5-min Rain = 0
KPPS 091450Z 33002KT M02/M03 A3035 RMK A01 T10241025  RH  100%=      5-min Rain = 0
KPPS 091455Z 34003KT M02/M02 A3035 RMK A01 T10221023  RH  100%=      5-min Rain = 0
KPPS 091500Z 34002KT M02/M02 A3035 RMK A01 T10191021  RH  100%=      5-min Rain = 0
KPPS 091505Z 34002KT M02/M02 A3036 RMK A01 T10171018  RH  100%=      5-min Rain = 0
KPPS 091510Z 34002KT M02/M02 A3036 RMK A01 T10161018  RH  100%=      5-min Rain = 0
KPPS 091515Z 34000KT M02/M02 A3036 RMK A01 T10151016  RH  100%=      5-min Rain = 0
KPPS 091520Z 34002KT M01/M01 A3036 RMK A01 T10111012  RH  100%=      5-min Rain = 0
KPPS 091525Z 35002KT M01/M01 A3036 RMK A01 T10121014  RH  100%=      5-min Rain = 0
KPPS 091530Z 34002KT M01/M01 A3037 RMK A01 T10121013  RH  100%=      5-min Rain = 0
KPPS 091535Z 33003KT M01/M01 A3037 RMK A01 T10121013  RH  100%=      5-min Rain = 0
KPPS 091540Z 34003KT M01/M01 A3037 RMK A01 T10121013  RH  100%=      5-min Rain = 0
KPPS 091545Z 35003KT M01/M01 A3037 RMK A01 T10121013  RH  100%=      5-min Rain = 0
KPPS 091550Z 34002KT M01/M01 A3037 RMK A01 T10101011  RH  100%=      5-min Rain = 0.01
KPPS 091555Z 34002KT M01/M01 A3037 RMK A01 T10081009  RH  100%=      5-min Rain = 0
KPPS 091600Z 34003KT M01/M01 A3038 RMK A01 T10081009  RH  100%=      5-min Rain = 0
KPPS 091605Z 34003KT M01/M01 A3038 RMK A01 T10071008  RH  100%=      5-min Rain = 0
KPPS 091610Z 33003KT M01/M01 A3038 RMK A01 T10061007  RH  100%=      5-min Rain = 0
KPPS 091615Z 34002KT M00/M01 A3038 RMK A01 T10041005  RH  100%=      5-min Rain = 0
KPPS 091620Z 33002KT M00/M00 A3038 RMK A01 T10031004  RH  100%=      5-min Rain = 0
KPPS 091625Z 33001KT M00/M00 A3038 RMK A01 T10021003  RH  100%=      5-min Rain = 0
KPPS 091630Z 33001KT 00/00 A3038 RMK A01 T00-000-2  RH  100%=      5-min Rain = 0
KPPS 091635Z 33001KT 00/00 A3038 RMK A01 T000000-1  RH  100%=      5-min Rain = 0
KPPS 091640Z 33003KT 00/00 A3039 RMK A01 T000000-1  RH  100%=      5-min Rain = 0
KPPS 091645Z 35002KT 00/M00 A3039 RMK A01 T00011001  RH  100%=      5-min Rain = 0
KPPS 091650Z 34001KT 00/M00 A3039 RMK A01 T00011001  RH  100%=      5-min Rain = 0
KPPS 091655Z 35002KT 00/00 A3039 RMK A01 T00020000  RH  100%=      5-min Rain = 0
KPPS 091700Z 35002KT 00/00 A3039 RMK A01 T00020001  RH  100%=      5-min Rain = 0
KPPS 091705Z 34002KT 00/00 A3039 RMK A01 T00030002  RH  100%=      5-min Rain = 0
KPPS 091710Z 34003KT 00/00 A3039 RMK A01 T00040002  RH  100%=      5-min Rain = 0
KPPS 091715Z 33002KT 01/00 A3039 RMK A01 T00050003  RH  100%=      5-min Rain = 0
KPPS 091720Z 33001KT 01/01 A3039 RMK A01 T00070005  RH  100%=      5-min Rain = 0
KPPS 091725Z 34001KT 01/01 A3039 RMK A01 T00080006  RH  100%=      5-min Rain = 0
KPPS 091730Z 34001KT 01/01 A3038 RMK A01 T00090007  RH  100%=      5-min Rain = 0
KPPS 091735Z 34001KT 01/01 A3038 RMK A01 T00090007  RH  100%=      5-min Rain = 0
KPPS 091740Z 34001KT 01/01 A3038 RMK A01 T00100009  RH  100%=      5-min Rain = 0
KPPS 091745Z 34001KT 01/01 A3038 RMK A01 T00110009  RH  100%=      5-min Rain = 0
KPPS 091750Z 33000KT 01/01 A3038 RMK A01 T00110010  RH  100%=      5-min Rain = 0
KPPS 091755Z 00000KT 02/01 A3038 RMK A01 T00150013  RH  100%=      5-min Rain = 0
KPPS 091800Z 00000KT 02/02 A3037 RMK A01 T00170015  RH  100%=      5-min Rain = 0
KPPS 091805Z 30000KT 02/01 A3037 RMK A01 T00160014  RH  100%=      5-min Rain = 0
KPPS 091810Z 26001KT 01/01 A3037 RMK A01 T00130011  RH  100%=      5-min Rain = 0
KPPS 091815Z 25001KT 01/01 A3037 RMK A01 T00120010  RH  100%=      5-min Rain = 0
KPPS 091820Z 24001KT 01/01 A3036 RMK A01 T00130011  RH  100%=      5-min Rain = 0
KPPS 091825Z 26001KT 01/01 A3036 RMK A01 T00130011  RH  100%=      5-min Rain = 0
KPPS 091830Z 26001KT 01/01 A3036 RMK A01 T00140012  RH  100%=      5-min Rain = 0
KPPS 091835Z 26001KT 02/01 A3035 RMK A01 T00160014  RH  100%=      5-min Rain = 0
KPPS 091840Z 26000KT 02/02 A3035 RMK A01 T00160015  RH  100%=      5-min Rain = 0
KPPS 091845Z 25001KT 02/02 A3035 RMK A01 T00190017  RH  100%=      5-min Rain = 0
KPPS 091850Z 24002KT 02/02 A3035 RMK A01 T00190017  RH  100%=      5-min Rain = 0
KPPS 091855Z 24002KT 02/02 A3035 RMK A01 T00190017  RH  100%=      5-min Rain = 0
KPPS 091900Z 25001KT 02/02 A3035 RMK A01 T00210019  RH  100%=      5-min Rain = 0
KPPS 091905Z 24002KT 02/02 A3035 RMK A01 T00210019  RH  100%=      5-min Rain = 0
KPPS 091910Z 24002KT 02/02 A3035 RMK A01 T00210019  RH  100%=      5-min Rain = 0
KPPS 091915Z 25002KT 02/02 A3035 RMK A01 T00220020  RH  100%=      5-min Rain = 0
KPPS 091920Z 26002KT 02/02 A3034 RMK A01 T00210019  RH  100%=      5-min Rain = 0
KPPS 091925Z 25003KT 02/02 A3034 RMK A01 T00210019  RH  100%=      5-min Rain = 0
KPPS 091930Z 25002KT 02/02 A3034 RMK A01 T00220020  RH  100%=      5-min Rain = 0
KPPS 091935Z 26002KT 02/02 A3034 RMK A01 T00240022  RH  100%=      5-min Rain = 0
KPPS 091940Z 26002KT 03/02 A3034 RMK A01 T00250023  RH  100%=      5-min Rain = 0
KPPS 091945Z 26002KT 03/02 A3034 RMK A01 T00260024  RH  100%=      5-min Rain = 0
KPPS 091950Z 27001KT 03/03 A3033 RMK A01 T00280026  RH  100%=      5-min Rain = 0
KPPS 091955Z 29002KT 03/03 A3033 RMK A01 T00280026  RH  100%=      5-min Rain = 0
KPPS 092000Z 28001KT 03/03 A3033 RMK A01 T00290026  RH  100%=      5-min Rain = 0
KPPS 092005Z 25002KT 03/03 A3033 RMK A01 T00310029  RH  100%=      5-min Rain = 0
KPPS 092010Z 26002KT 03/03 A3033 RMK A01 T00310028  RH  100%=      5-min Rain = 0
KPPS 092015Z 28001KT 03/03 A3033 RMK A01 T00290027  RH  100%=      5-min Rain = 0
KPPS 092020Z 27001KT 03/03 A3032 RMK A01 T00330031  RH  100%=      5-min Rain = 0
KPPS 092025Z 25002KT 03/03 A3032 RMK A01 T00330031  RH  100%=      5-min Rain = 0
KPPS 092030Z 26001KT 03/03 A3032 RMK A01 T00330031  RH  100%=      5-min Rain = 0
KPPS 092035Z 31002KT 03/03 A3032 RMK A01 T00320030  RH  100%=      5-min Rain = 0
KPPS 092040Z 33001KT 03/03 A3032 RMK A01 T00330031  RH  100%=      5-min Rain = 0
KPPS 092045Z 33002KT 03/03 A3032 RMK A01 T00330030  RH  100%=      5-min Rain = 0
KPPS 092050Z 31002KT 04/03 A3032 RMK A01 T00360034  RH  100%=      5-min Rain = 0
KPPS 092055Z 32001KT 04/04 A3032 RMK A01 T00400038  RH  100%=      5-min Rain = 0
KPPS 092100Z 33001KT 05/04 A3032 RMK A01 T00450042  RH  100%=      5-min Rain = 0
KPPS 092105Z 35000KT 05/05 A3032 RMK A01 T00520049  RH  100%=      5-min Rain = 0
KPPS 092110Z 35001KT 06/05 A3032 RMK A01 T00560049  RH  097%=      5-min Rain = 0
KPPS 092115Z 28000KT 06/03 A3032 RMK A01 T00620030  RH  082%=      5-min Rain = 0
KPPS 092120Z 26001KT 06/02 A3032 RMK A01 T00640016  RH  072%=      5-min Rain = 0
KPPS 092125Z 25001KT 07/01 A3032 RMK A01 T00670011  RH  069%=      5-min Rain = 0
KPPS 092130Z 26000KT 07/01 A3032 RMK A01 T00710008  RH  065%=      5-min Rain = 0
KPPS 092135Z 27000KT 07/01 A3032 RMK A01 T00660007  RH  067%=      5-min Rain = 0
KPPS 092140Z 33000KT 07/01 A3032 RMK A01 T00660010  RH  068%=      5-min Rain = 0
KPPS 092145Z 32002KT 06/01 A3032 RMK A01 T00610013  RH  073%=      5-min Rain = 0
KPPS 092150Z 30002KT 06/01 A3032 RMK A01 T00580013  RH  074%=      5-min Rain = 0
KPPS 092155Z 30002KT 06/02 A3032 RMK A01 T00600015  RH  074%=      5-min Rain = 0
KPPS 092200Z 31001KT 06/01 A3032 RMK A01 T00610013  RH  072%=      5-min Rain = 0
KPPS 092205Z 32001KT 06/01 A3032 RMK A01 T00610011  RH  071%=      5-min Rain = 0
KPPS 092210Z 34001KT 06/01 A3032 RMK A01 T00620009  RH  070%=      5-min Rain = 0
KPPS 092215Z 33002KT 06/01 A3033 RMK A01 T00570009  RH  072%=      5-min Rain = 0
KPPS 092220Z 33003KT 06/01 A3033 RMK A01 T00560009  RH  073%=      5-min Rain = 0
KPPS 092225Z 35003KT 06/01 A3033 RMK A01 T00550008  RH  073%=      5-min Rain = 0
KPPS 092230Z 33004KT 05/01 A3033 RMK A01 T00540011  RH  075%=      5-min Rain = 0
KPPS 092235Z 34003KT 05/02 A3033 RMK A01 T00540016  RH  077%=      5-min Rain = 0
KPPS 092240Z 34004KT 05/02 A3033 RMK A01 T00540015  RH  077%=      5-min Rain = 0
KPPS 092245Z 34003KT 05/02 A3033 RMK A01 T00520017  RH  079%=      5-min Rain = 0
KPPS 092250Z 36004KT 05/02 A3033 RMK A01 T00510017  RH  080%=      5-min Rain = 0
KPPS 092255Z 35004KT 05/02 A3033 RMK A01 T00490018  RH  082%=      5-min Rain = 0
KPPS 092300Z 35003KT 05/02 A3033 RMK A01 T00500018  RH  081%=      5-min Rain = 0
KPPS 092305Z 36003KT 05/02 A3033 RMK A01 T00490017  RH  081%=      5-min Rain = 0
KPPS 092310Z 02001KT 05/02 A3033 RMK A01 T00500017  RH  081%=      5-min Rain = 0
KPPS 092315Z 02002KT 05/02 A3033 RMK A01 T00490015  RH  080%=      5-min Rain = 0
KPPS 092320Z 02002KT 05/01 A3033 RMK A01 T00470013  RH  080%=      5-min Rain = 0
KPPS 092325Z 03001KT 05/01 A3033 RMK A01 T00450014  RH  082%=      5-min Rain = 0
KPPS 092330Z 04002KT 04/02 A3033 RMK A01 T00420015  RH  084%=      5-min Rain = 0
KPPS 092335Z 05003KT 04/01 A3033 RMK A01 T00400014  RH  085%=      5-min Rain = 0
KPPS 092340Z 05003KT 04/01 A3033 RMK A01 T00380014  RH  086%=      5-min Rain = 0
KPPS 092345Z 07003KT 03/01 A3032 RMK A01 T00340014  RH  088%=      5-min Rain = 0
KPPS 092350Z 08003KT 03/01 A3032 RMK A01 T00310011  RH  088%=      5-min Rain = 0
KPPS 092355Z 08004KT 03/01 A3032 RMK A01 T00290008  RH  087%=      5-min Rain = 0
KPPS 100000Z 08004KT 03/01 A3032 RMK A01 T00270006  RH  087%=      5-min Rain = 0
KPPS 100005Z 08004KT 02/00 A3032 RMK A01 T00240004  RH  088%=      5-min Rain = 0
KPPS 100010Z 08004KT 02/00 A3033 RMK A01 T00240003  RH  087%=      5-min Rain = 0
KPPS 100015Z 08003KT 02/00 A3033 RMK A01 T00220002  RH  088%=      5-min Rain = 0
KPPS 100020Z 08002KT 02/00 A3033 RMK A01 T00220002  RH  088%=      5-min Rain = 0
KPPS 100025Z 07003KT 02/00 A3033 RMK A01 T00220002  RH  088%=      5-min Rain = 0
KPPS 100030Z 07003KT 02/00 A3034 RMK A01 T002200-0  RH  086%=      5-min Rain = 0
KPPS 100035Z 07003KT 02/M00 A3034 RMK A01 T00241002  RH  084%=      5-min Rain = 0
KPPS 100040Z 05003KT 03/M01 A3034 RMK A01 T00261005  RH  081%=      5-min Rain = 0
KPPS 100045Z 05004KT 03/M00 A3034 RMK A01 T00261004  RH  082%=      5-min Rain = 0
KPPS 100050Z 05004KT 03/M00 A3034 RMK A01 T00251002  RH  084%=      5-min Rain = 0
KPPS 100055Z 05004KT 02/M00 A3034 RMK A01 T00241001  RH  084%=      5-min Rain = 0
KPPS 100100Z 06005KT 02/M00 A3034 RMK A01 T00241001  RH  085%=      5-min Rain = 0
KPPS 100105Z 06004KT 02/00 A3034 RMK A01 T002400-0  RH  085%=      5-min Rain = 0
KPPS 100110Z 06004KT 02/M00 A3034 RMK A01 T00231003  RH  084%=      5-min Rain = 0
KPPS 100115Z 07004KT 02/M00 A3034 RMK A01 T00181003  RH  087%=      5-min Rain = 0
KPPS 100120Z 09005KT 01/M00 A3034 RMK A01 T00131004  RH  090%=      5-min Rain = 0
KPPS 100125Z 10003KT 01/M01 A3034 RMK A01 T00071008  RH  091%=      5-min Rain = 0
KPPS 100130Z 11003KT 01/M01 A3034 RMK A01 T00071006  RH  092%=      5-min Rain = 0
KPPS 100135Z 14004KT 00/M01 A3035 RMK A01 T00041007  RH  093%=      5-min Rain = 0
KPPS 100140Z 15004KT M00/M01 A3035 RMK A01 T10011009  RH  095%=      5-min Rain = 0
KPPS 100145Z 15004KT 00/M00 A3035 RMK A01 T00011004  RH  097%=      5-min Rain = 0
KPPS 100150Z 15003KT 00/M00 A3035 RMK A01 T00041002  RH  097%=      5-min Rain = 0
KPPS 100155Z 14004KT 00/M01 A3035 RMK A01 T00011005  RH  097%=      5-min Rain = 0
KPPS 100200Z 15005KT M00/M01 A3035 RMK A01 T10021006  RH  098%=      5-min Rain = 0
KPPS 100205Z 14004KT M00/M00 A3035 RMK A01 T10011004  RH  099%=      5-min Rain = 0
KPPS 100210Z 14004KT 00/00 A3035 RMK A01 T00-000-3  RH  099%=      5-min Rain = 0
KPPS 100215Z 14004KT 00/M00 A3035 RMK A01 T00011002  RH  099%=      5-min Rain = 0
KPPS 100220Z 15004KT 00/00 A3035 RMK A01 T00-000-3  RH  099%=      5-min Rain = 0
KPPS 100225Z 14003KT M00/M00 A3036 RMK A01 T10011003  RH  100%=      5-min Rain = 0
KPPS 100230Z 12002KT M00/M00 A3036 RMK A01 T10011002  RH  100%=      5-min Rain = 0
KPPS 100235Z 10002KT 00/00 A3037 RMK A01 T00-000-2  RH  100%=      5-min Rain = 0
KPPS 100240Z 04003KT M01/M01 A3037 RMK A01 T10061007  RH  100%=      5-min Rain = 0
KPPS 100245Z 02004KT M01/M01 A3037 RMK A01 T10131014  RH  100%=      5-min Rain = 0
KPPS 100250Z 01004KT M02/M02 A3037 RMK A01 T10171018  RH  100%=      5-min Rain = 0
KPPS 100255Z 00003KT M02/M03 A3037 RMK A01 T10241025  RH  100%=      5-min Rain = 0
KPPS 100300Z 36002KT M02/M02 A3037 RMK A01 T10221023  RH  100%=      5-min Rain = 0
KPPS 100305Z 35001KT M02/M02 A3037 RMK A01 T10231024  RH  100%=      5-min Rain = 0
KPPS 100310Z 34000KT M02/M02 A3037 RMK A01 T10221023  RH  100%=      5-min Rain = 0
KPPS 100315Z 33000KT M02/M02 A3037 RMK A01 T10221023  RH  100%=      5-min Rain = 0
KPPS 100320Z 33000KT M02/M02 A3037 RMK A01 T10231024  RH  100%=      5-min Rain = 0
KPPS 100325Z 29002KT M02/M03 A3037 RMK A01 T10241025  RH  100%=      5-min Rain = 0
KPPS 100330Z 27004KT M03/M03 A3037 RMK A01 T10281029  RH  100%=      5-min Rain = 0
KPPS 100335Z 27005KT M03/M03 A3038 RMK A01 T10311032  RH  100%=      5-min Rain = 0
KPPS 100340Z 28005KT M03/M03 A3038 RMK A01 T10311032  RH  100%=      5-min Rain = 0
KPPS 100345Z 30005KT M03/M03 A3038 RMK A01 T10271027  RH  100%=      5-min Rain = 0
KPPS 100350Z 30006KT M03/M03 A3038 RMK A01 T10271028  RH  100%=      5-min Rain = 0
KPPS 100355Z 30006KT M03/M03 A3039 RMK A01 T10261027  RH  100%=      5-min Rain = 0
KPPS 100400Z 29006KT M02/M02 A3039 RMK A01 T10211022  RH  100%=      5-min Rain = 0
KPPS 100405Z 29005KT M02/M02 A3038 RMK A01 T10181019  RH  100%=      5-min Rain = 0
KPPS 100410Z 28005KT M02/M02 A3038 RMK A01 T10171018  RH  100%=      5-min Rain = 0
KPPS 100415Z 29005KT M01/M02 A3038 RMK A01 T10141015  RH  100%=      5-min Rain = 0
KPPS 100420Z 30005KT M02/M02 A3039 RMK A01 T10191020  RH  100%=      5-min Rain = 0
KPPS 100425Z 30005KT M02/M02 A3039 RMK A01 T10221023  RH  100%=      5-min Rain = 0
KPPS 100430Z 30005KT M02/M03 A3039 RMK A01 T10241025  RH  100%=      5-min Rain = 0
KPPS 100435Z 30005KT M02/M02 A3039 RMK A01 T10231024  RH  100%=      5-min Rain = 0
KPPS 100440Z 29005KT M02/M02 A3039 RMK A01 T10231024  RH  100%=      5-min Rain = 0
KPPS 100445Z 29006KT M02/M02 A3039 RMK A01 T10231024  RH  100%=      5-min Rain = 0
KPPS 100450Z 28006KT M02/M02 A3039 RMK A01 T10161017  RH  100%=      5-min Rain = 0
KPPS 100455Z 28005KT M02/M02 A3039 RMK A01 T10181019  RH  100%=      5-min Rain = 0
KPPS 100500Z 28006KT M03/M03 A3039 RMK A01 T10271028  RH  100%=      5-min Rain = 0
KPPS 100505Z 28006KT M03/M03 A3039 RMK A01 T10311032  RH  100%=      5-min Rain = 0
KPPS 100510Z 28006KT M04/M04 A3039 RMK A01 T10351036  RH  100%=      5-min Rain = 0
KPPS 100515Z 28006KT M04/M04 A3039 RMK A01 T10391039  RH  100%=      5-min Rain = 0
KPPS 100520Z 29007KT M03/M03 A3039 RMK A01 T10331034  RH  100%=      5-min Rain = 0
KPPS 100525Z 29007KT M03/M03 A3039 RMK A01 T10281028  RH  100%=      5-min Rain = 0
KPPS 100530Z 28007KT M03/M03 A3039 RMK A01 T10251025  RH  100%=      5-min Rain = 0
KPPS 100535Z 28007KT M02/M03 A3039 RMK A01 T10241025  RH  100%=      5-min Rain = 0
KPPS 100540Z 28007KT M02/M02 A3039 RMK A01 T10231024  RH  100%=      5-min Rain = 0
KPPS 100545Z 28007KT M02/M03 A3039 RMK A01 T10241025  RH  100%=      5-min Rain = 0
KPPS 100550Z 29007KT M02/M02 A3039 RMK A01 T10221023  RH  100%=      5-min Rain = 0
KPPS 100555Z 29007KT M02/M02 A3039 RMK A01 T10221023  RH  100%=      5-min Rain = 0

Page generated in 0.0356 seconds.